Grand Forks International Airport


Codes: KGFK/GFK
Name: Grand Forks International Airport
City: Grand Forks
Country: United States
Elevation: 845 ft.
Wikipedia:

Photos at Grand Forks International Airport


   Photos courtesy of SpottingLog. You can add your own sightings and photos by signing up for a free trial today.



No photos found.

Weather at Grand Forks International Airport


Time (UTC)DescriptionTempratureWindCloud coverageVisibilityPressureHumidity
21-Feb-2024 03:00Broken Clouds-1°C4 mph, W75%10000m1013hPa83%
21-Feb-2024 06:00Broken Clouds-1°C4 mph, NW83%10000m1013hPa74%
21-Feb-2024 09:00Overcast Clouds-1°C4 mph, NE91%10000m1013hPa67%
21-Feb-2024 12:00Broken Clouds-2°C2 mph, SE67%10000m1012hPa62%
21-Feb-2024 15:00Broken Clouds-0°C2 mph, SE56%10000m1012hPa55%
21-Feb-2024 18:00Broken Clouds3°C2 mph, E77%10000m1011hPa45%
21-Feb-2024 21:00Broken Clouds5°C4 mph, NE70%10000m1009hPa46%
22-Feb-2024 00:00Broken Clouds1°C7 mph, NE75%10000m1009hPa67%
22-Feb-2024 03:00Scattered Clouds-2°C7 mph, N50%10000m1011hPa79%
22-Feb-2024 06:00Broken Clouds-1°C7 mph, NW73%10000m1011hPa75%
22-Feb-2024 09:00Broken Clouds-2°C7 mph, NW75%10000m1012hPa78%
22-Feb-2024 12:00Scattered Clouds-2°C7 mph, W46%10000m1011hPa82%
22-Feb-2024 15:00Scattered Clouds-0°C11 mph, W39%10000m1011hPa64%
22-Feb-2024 18:00Scattered Clouds5°C16 mph, NW47%10000m1010hPa47%
22-Feb-2024 21:00Few Clouds6°C16 mph, NW24%10000m1010hPa49%
23-Feb-2024 00:00Few Clouds2°C11 mph, NW17%10000m1011hPa69%
23-Feb-2024 03:00Scattered Clouds-1°C9 mph, N29%10000m1013hPa82%
23-Feb-2024 06:00Broken Clouds-5°C11 mph, N62%10000m1015hPa63%
23-Feb-2024 09:00Overcast Clouds-7°C11 mph, N99%10000m1016hPa59%
23-Feb-2024 12:00Overcast Clouds-7°C9 mph, N100%10000m1016hPa61%
23-Feb-2024 15:00Overcast Clouds-7°C9 mph, N100%10000m1018hPa55%
23-Feb-2024 18:00Overcast Clouds-5°C9 mph, N94%10000m1019hPa40%
23-Feb-2024 21:00Few Clouds-3°C7 mph, N16%10000m1018hPa31%
24-Feb-2024 00:00Few Clouds-5°C4 mph, N11%10000m1019hPa35%
24-Feb-2024 03:00Clear Sky-6°C4 mph, SE9%10000m1018hPa40%
24-Feb-2024 06:00Few Clouds-6°C7 mph, S15%10000m1016hPa44%
24-Feb-2024 09:00Scattered Clouds-5°C11 mph, S30%10000m1013hPa55%
24-Feb-2024 12:00Few Clouds-5°C13 mph, S20%10000m1010hPa72%
24-Feb-2024 15:00Few Clouds-2°C13 mph, S11%10000m1006hPa73%
24-Feb-2024 18:00Clear Sky7°C16 mph, SW9%10000m1002hPa50%
24-Feb-2024 21:00Few Clouds9°C18 mph, W24%10000m1000hPa47%
25-Feb-2024 00:00Broken Clouds3°C9 mph, NW54%10000m1001hPa67%
25-Feb-2024 03:00Scattered Clouds1°C9 mph, W48%10000m1004hPa66%
25-Feb-2024 06:00Broken Clouds1°C11 mph, NW74%10000m1004hPa65%
25-Feb-2024 09:00Broken Clouds-2°C9 mph, W79%10000m1005hPa71%
25-Feb-2024 12:00Overcast Clouds-2°C11 mph, NW89%10000m1007hPa66%
25-Feb-2024 15:00Broken Clouds-2°C13 mph, NW60%10000m1009hPa54%
25-Feb-2024 18:00Scattered Clouds1°C11 mph, NW43%10000m1009hPa38%
25-Feb-2024 21:00Few Clouds2°C9 mph, NW21%10000m1009hPa33%
26-Feb-2024 00:00Scattered Clouds-1°C4 mph, N27%10000m1010hPa44%